« Back
NWS Peachtree City, Ga » Text Product » AHN Terminal Aerodrome Forecast


Printer-friendly Version
Current Version              Previous Versions:   1  2  3  4  5  6  7  8  9  

Terminal Aerodrome Forecast

890
FTAK31 PAJN 270500
TAFAHN
TAF
PAHN 270538Z 2706/2806 09010G16KT P6SM VCSH SCT020 BKN035 OVC060
      WS020/16025KT
     FM270900 09010KT P6SM -SHRA BKN030 OVC060
     FM271600 12010KT 6SM -SHRA BKN025 OVC040
     FM272300 09008KT P6SM VCSH BKN030 BKN070
      AMD LTD TO CLD VIS AND WIND=

USA.gov is the U.S. government's official web portal to all federal, state and local government web resources and services.